Time;durP1;ratioP1;P1;durP2;ratioP2;P2;SDS_P1;SDS_P2;PMS_P1;PMS_P2;Temp;Humidity;BMP_temperature;BMP_pressure;BME280_temperature;BME280_humidity;BME280_pressure;Samples;Min_cycle;Max_cycle;Signal;HPM_P1;HPM_P2
2023/04/06 00:01:38;;;;;;;7.45;6.40;;;3.60;99.90;;;;;;5072586;28;20477;-81
2023/04/06 00:04:05;;;;;;;7.85;7.07;;;3.70;99.90;;;;;;5072133;28;20086;-81
2023/04/06 00:06:31;;;;;;;9.70;6.70;;;3.70;99.90;;;;;;5072790;28;20127;-80
2023/04/06 00:08:58;;;;;;;7.25;6.45;;;3.60;99.90;;;;;;5072470;28;20087;-80
2023/04/06 00:11:23;;;;;;;9.13;6.25;;;3.60;99.90;;;;;;5072705;28;20094;-81
2023/04/06 00:13:49;;;;;;;7.93;7.13;;;3.60;99.90;;;;;;5072377;28;20044;-80
2023/04/06 00:16:15;;;;;;;6.97;6.28;;;3.60;99.90;;;;;;5072741;28;20498;-80
2023/04/06 00:18:41;;;;;;;8.15;5.82;;;3.70;99.90;;;;;;5071668;28;20147;-79
2023/04/06 00:21:06;;;;;;;10.80;6.70;;;3.60;99.90;;;;;;5072727;28;20048;-78
2023/04/06 00:23:32;;;;;;;7.90;6.85;;;3.60;99.90;;;;;;5072883;28;20048;-80
2023/04/06 00:25:58;;;;;;;7.68;6.97;;;3.50;99.90;;;;;;5088960;28;20442;-80
2023/04/06 00:28:28;;;;;;;7.30;6.60;;;3.40;99.90;;;;;;5073027;28;20040;-80
2023/04/06 00:30:55;;;;;;;12.77;7.78;;;3.30;99.90;;;;;;5072603;28;20048;-81
2023/04/06 00:33:21;;;;;;;7.05;6.35;;;3.20;99.90;;;;;;5072831;28;20052;-79
2023/04/06 00:35:46;;;;;;;10.65;7.25;;;3.20;99.90;;;;;;5072747;28;20044;-79
2023/04/06 00:38:12;;;;;;;8.32;7.47;;;3.10;99.90;;;;;;5072398;28;20083;-80
2023/04/06 00:40:39;;;;;;;8.57;7.38;;;3.10;99.90;;;;;;5072150;28;20043;-80
2023/04/06 00:43:06;;;;;;;7.00;6.40;;;3.10;99.90;;;;;;5073137;28;20119;-79
2023/04/06 00:45:32;;;;;;;7.75;7.05;;;3.00;99.90;;;;;;5073226;28;20095;-80
2023/04/06 00:47:58;;;;;;;7.88;6.90;;;2.90;99.90;;;;;;5076337;28;20110;-79
2023/04/06 00:50:24;;;;;;;9.55;7.38;;;2.80;99.90;;;;;;5076357;28;20048;-81
2023/04/06 00:52:50;;;;;;;7.40;6.70;;;2.80;99.90;;;;;;5108802;28;20121;-80
2023/04/06 00:55:17;;;;;;;9.10;6.80;;;2.80;99.90;;;;;;5075771;28;20052;-79
2023/04/06 00:57:43;;;;;;;8.27;7.47;;;2.70;99.90;;;;;;5076307;28;20422;-80
2023/04/06 01:00:09;;;;;;;8.07;6.50;;;2.70;99.90;;;;;;5076196;28;20060;-81
2023/04/06 01:02:35;;;;;;;8.20;7.50;;;2.70;99.90;;;;;;5075456;28;20052;-79
2023/04/06 01:05:01;;;;;;;8.20;7.40;;;2.70;99.90;;;;;;5076140;28;20473;-80
2023/04/06 01:07:27;;;;;;;7.72;6.90;;;2.80;99.90;;;;;;5075879;28;20052;-76
2023/04/06 01:09:54;;;;;;;9.63;7.55;;;2.70;99.90;;;;;;5075033;28;20052;-81
2023/04/06 01:12:20;;;;;;;8.50;7.70;;;2.70;99.90;;;;;;5075808;28;20050;-81
2023/04/06 01:14:46;;;;;;;8.35;7.55;;;2.60;99.90;;;;;;5075933;28;20461;-79
2023/04/06 01:17:12;;;;;;;8.52;7.63;;;2.60;99.90;;;;;;5091407;28;20119;-80
2023/04/06 01:19:40;;;;;;;8.52;7.43;;;2.60;99.90;;;;;;5075639;28;20044;-78
2023/04/06 01:22:05;;;;;;;7.93;7.22;;;2.50;99.90;;;;;;5075564;28;20073;-79
2023/04/06 01:24:31;;;;;;;10.95;7.80;;;2.30;99.90;;;;;;5074644;28;20123;-80
2023/04/06 01:26:57;;;;;;;9.55;8.55;;;2.10;99.90;;;;;;5075505;28;20055;-79
2023/04/06 01:29:23;;;;;;;9.18;8.20;;;2.00;99.90;;;;;;5075467;28;20049;-79
2023/04/06 01:31:48;;;;;;;8.90;8.00;;;1.90;99.90;;;;;;5075651;28;20052;-80
2023/04/06 01:34:14;;;;;;;9.35;7.25;;;1.90;99.90;;;;;;5075706;28;20446;-81
2023/04/06 01:36:40;;;;;;;10.77;7.60;;;1.90;99.90;;;;;;5075317;28;20044;-81
2023/04/06 01:39:06;;;;;;;8.60;7.72;;;1.90;99.90;;;;;;5090869;28;20098;-80
2023/04/06 01:41:31;;;;;;;9.38;8.27;;;1.90;99.90;;;;;;5075111;28;20060;-80
2023/04/06 01:43:57;;;;;;;8.07;7.30;;;1.90;99.90;;;;;;5091437;28;20092;-79
2023/04/06 01:46:23;;;;;;;10.15;9.13;;;2.00;99.90;;;;;;5075539;28;20077;-80
2023/04/06 01:48:48;;;;;;;9.93;8.13;;;2.10;99.90;;;;;;5075508;28;20127;-79
2023/04/06 01:51:14;;;;;;;9.38;8.10;;;2.10;99.90;;;;;;5074403;28;20048;-81
2023/04/06 01:53:40;;;;;;;9.10;8.20;;;2.10;99.90;;;;;;5090772;28;20052;-79
2023/04/06 01:56:06;;;;;;;9.90;8.75;;;2.10;99.90;;;;;;5074412;28;20390;-80
2023/04/06 01:58:32;;;;;;;11.35;9.55;;;2.00;99.90;;;;;;5075034;28;20044;-79
2023/04/06 02:00:58;;;;;;;9.68;8.38;;;2.00;99.90;;;;;;5073962;28;20040;-81
2023/04/06 02:03:23;;;;;;;9.77;8.68;;;2.00;99.90;;;;;;5074059;28;20470;-80
2023/04/06 02:05:49;;;;;;;9.43;8.63;;;1.90;99.90;;;;;;5074804;28;20052;-79
2023/04/06 02:08:15;;;;;;;12.40;8.63;;;1.90;99.90;;;;;;5073968;28;20061;-80
2023/04/06 02:10:41;;;;;;;9.52;8.45;;;1.80;99.90;;;;;;5073771;28;20044;-79
2023/04/06 02:13:06;;;;;;;9.68;8.63;;;2.00;99.90;;;;;;5074726;28;20131;-80
2023/04/06 02:15:32;;;;;;;11.88;9.02;;;2.10;99.90;;;;;;5074777;28;20047;-81
2023/04/06 02:17:59;;;;;;;10.30;8.88;;;2.10;99.90;;;;;;5073475;28;20389;-81
2023/04/06 02:20:25;;;;;;;12.02;9.00;;;2.10;99.90;;;;;;5075229;28;20048;-80
2023/04/06 02:22:50;;;;;;;12.23;9.02;;;2.10;99.90;;;;;;5073540;28;20472;-77
2023/04/06 02:25:16;;;;;;;9.18;8.25;;;2.00;99.90;;;;;;5073978;28;20495;-80
2023/04/06 02:27:42;;;;;;;9.82;8.60;;;1.90;99.90;;;;;;5073836;28;20497;-81
2023/04/06 02:30:08;;;;;;;9.98;9.05;;;1.80;99.90;;;;;;5074381;28;20044;-81
2023/04/06 02:32:34;;;;;;;12.55;9.73;;;1.80;99.90;;;;;;5074381;28;20040;-81
2023/04/06 02:35:00;;;;;;;12.75;9.35;;;1.80;99.90;;;;;;5079708;28;20459;-81
2023/04/06 02:37:26;;;;;;;11.68;8.85;;;1.80;99.90;;;;;;5080252;28;20057;-80
2023/04/06 02:39:51;;;;;;;12.52;8.70;;;1.80;99.90;;;;;;5079100;28;20450;-80
2023/04/06 02:42:17;;;;;;;9.80;8.73;;;1.80;99.90;;;;;;5078983;28;20056;-81
2023/04/06 02:44:43;;;;;;;9.43;8.43;;;1.80;99.90;;;;;;5075739;28;20109;-82
2023/04/06 02:47:09;;;;;;;9.45;7.63;;;1.70;99.90;;;;;;5075156;28;20048;-79
2023/04/06 02:49:35;;;;;;;8.80;7.88;;;1.70;99.90;;;;;;5074962;28;20135;-82
2023/04/06 02:52:01;;;;;;;9.00;8.07;;;1.60;99.90;;;;;;5074945;28;20047;-79
2023/04/06 02:54:26;;;;;;;10.02;9.00;;;1.60;99.90;;;;;;5074067;28;20070;-79
2023/04/06 02:56:52;;;;;;;15.70;8.77;;;1.50;99.90;;;;;;5072922;28;20385;-81
2023/04/06 02:59:18;;;;;;;9.40;7.70;;;1.50;99.90;;;;;;5074081;28;20141;-81
2023/04/06 03:01:43;;;;;;;10.82;8.98;;;1.40;99.90;;;;;;5073937;28;20044;-81
2023/04/06 03:04:09;;;;;;;11.10;9.77;;;1.40;99.90;;;;;;5073372;28;20049;-78
2023/04/06 03:06:35;;;;;;;10.77;9.38;;;1.40;99.90;;;;;;5074001;28;20044;-80
2023/04/06 03:09:00;;;;;;;9.82;8.50;;;1.30;99.90;;;;;;5072813;28;20119;-78
2023/04/06 03:11:26;;;;;;;9.80;8.20;;;1.30;99.90;;;;;;5072581;28;20450;-82
2023/04/06 03:13:52;;;;;;;8.90;7.60;;;1.30;99.90;;;;;;5073623;28;20045;-82
2023/04/06 03:16:18;;;;;;;9.80;8.88;;;1.30;99.90;;;;;;5074146;28;20052;-81
2023/04/06 03:18:45;;;;;;;9.77;7.35;;;1.30;99.90;;;;;;5073762;28;20467;-83
2023/04/06 03:21:10;;;;;;;9.48;8.48;;;1.30;99.90;;;;;;5073683;28;20053;-83
2023/04/06 03:23:36;;;;;;;10.70;8.98;;;1.40;99.90;;;;;;5073553;28;20051;-81
2023/04/06 03:26:02;;;;;;;10.25;8.45;;;1.40;99.90;;;;;;5073480;28;20122;-82
2023/04/06 03:28:28;;;;;;;9.25;8.23;;;1.30;99.90;;;;;;5073339;28;20040;-83
2023/04/06 03:30:54;;;;;;;9.70;8.88;;;1.20;99.90;;;;;;5073538;28;20055;-82
2023/04/06 03:33:20;;;;;;;13.75;9.27;;;1.20;99.90;;;;;;5073333;28;20060;-82
2023/04/06 03:35:45;;;;;;;10.65;9.63;;;1.10;99.90;;;;;;5088606;28;20048;-78
2023/04/06 03:38:11;;;;;;;8.95;8.07;;;1.10;99.90;;;;;;5088623;28;20138;-81
2023/04/06 03:40:37;;;;;;;13.13;7.75;;;1.00;99.90;;;;;;5073400;28;20051;-81
2023/04/06 03:43:03;;;;;;;9.95;8.85;;;1.00;99.90;;;;;;5073108;28;20580;-82
2023/04/06 03:45:29;;;;;;;10.05;8.50;;;0.90;99.90;;;;;;5072936;28;20052;-81
2023/04/06 03:47:55;;;;;;;11.02;8.55;;;0.90;99.90;;;;;;5073086;28;20413;-80
2023/04/06 03:50:20;;;;;;;10.65;8.45;;;0.80;99.90;;;;;;5073018;28;20051;-79
2023/04/06 03:52:46;;;;;;;10.27;8.43;;;0.90;99.90;;;;;;5072962;28;20048;-78
2023/04/06 03:55:12;;;;;;;15.65;9.32;;;0.90;99.90;;;;;;5088714;28;20463;-82
2023/04/06 03:57:37;;;;;;;9.23;8.32;;;0.90;99.90;;;;;;5072544;28;20131;-83
2023/04/06 04:00:04;;;;;;;9.52;8.63;;;0.90;99.90;;;;;;5072722;28;20473;-80
2023/04/06 04:02:29;;;;;;;8.82;7.93;;;0.80;99.90;;;;;;5072597;28;20044;-82
2023/04/06 04:04:55;;;;;;;9.43;7.90;;;0.90;99.90;;;;;;5072635;28;20088;-81
2023/04/06 04:07:21;;;;;;;9.32;8.43;;;0.80;99.90;;;;;;5072731;28;20121;-80
2023/04/06 04:09:46;;;;;;;8.98;8.07;;;0.90;99.90;;;;;;5072762;28;20049;-79
2023/04/06 04:12:14;;;;;;;8.52;7.57;;;0.90;99.90;;;;;;5070988;28;20057;-78
2023/04/06 04:14:40;;;;;;;9.52;8.23;;;0.90;99.90;;;;;;5072623;28;20048;-80
2023/04/06 04:17:05;;;;;;;9.25;8.35;;;0.90;99.90;;;;;;5071859;28;20059;-80
2023/04/06 04:19:31;;;;;;;9.13;7.97;;;0.90;99.90;;;;;;5071234;28;20523;-81
2023/04/06 04:21:57;;;;;;;10.25;8.75;;;0.90;99.90;;;;;;5072762;28;20086;-80
2023/04/06 04:24:22;;;;;;;9.52;7.75;;;0.90;99.90;;;;;;5071517;28;20142;-82
2023/04/06 04:26:48;;;;;;;10.00;8.98;;;1.00;99.90;;;;;;5072225;28;20056;-82
2023/04/06 04:29:15;;;;;;;9.30;8.10;;;1.30;99.90;;;;;;5072354;28;20080;-80
2023/04/06 04:31:40;;;;;;;8.88;7.97;;;0.80;99.90;;;;;;5072298;28;20127;-79
2023/04/06 04:34:06;;;;;;;9.90;8.38;;;0.90;99.90;;;;;;5072435;28;20487;-81
2023/04/06 04:36:32;;;;;;;11.60;9.02;;;0.90;99.90;;;;;;5071803;28;20120;-82
2023/04/06 04:38:58;;;;;;;10.32;8.63;;;0.90;99.90;;;;;;5072018;28;20080;-78
2023/04/06 04:41:24;;;;;;;10.90;9.27;;;0.90;99.90;;;;;;5071853;28;20065;-82
2023/04/06 04:43:50;;;;;;;9.23;8.27;;;1.00;99.90;;;;;;5072141;28;20457;-81
2023/04/06 04:46:15;;;;;;;10.45;9.23;;;1.00;99.90;;;;;;5072231;28;20041;-79
2023/04/06 04:48:41;;;;;;;10.98;8.38;;;1.00;99.90;;;;;;5072532;28;20040;-81
2023/04/06 04:51:07;;;;;;;9.88;8.95;;;0.80;99.90;;;;;;5072507;28;20048;-80
2023/04/06 04:53:32;;;;;;;9.35;8.38;;;1.10;99.90;;;;;;5072512;28;20048;-82
2023/04/06 04:55:58;;;;;;;10.05;8.30;;;1.00;99.90;;;;;;5087701;28;20502;-81
2023/04/06 04:58:24;;;;;;;12.65;9.50;;;1.00;99.90;;;;;;5072262;28;20044;-80
2023/04/06 05:00:49;;;;;;;11.35;8.63;;;1.00;99.90;;;;;;5071904;28;20060;-81
2023/04/06 05:03:22;;;;;;;9.85;8.30;;;0.90;99.90;;;;;;5072132;28;20048;-81
2023/04/06 05:05:48;;;;;;;10.23;8.10;;;1.00;99.90;;;;;;5072625;28;20040;-79
2023/04/06 05:08:15;;;;;;;8.70;7.82;;;1.00;99.90;;;;;;5071655;28;20490;-80
2023/04/06 05:10:41;;;;;;;10.43;9.43;;;1.00;99.90;;;;;;5072479;28;20195;-78
2023/04/06 05:13:07;;;;;;;11.02;8.45;;;1.00;99.90;;;;;;5072102;28;20546;-80
2023/04/06 05:15:34;;;;;;;14.38;9.18;;;1.00;99.90;;;;;;5071950;28;20044;-77
2023/04/06 05:18:01;;;;;;;12.73;8.45;;;1.90;99.90;;;;;;5072159;28;20081;-81
2023/04/06 05:20:27;;;;;;;8.52;7.70;;;1.00;99.90;;;;;;5071827;28;20052;-80
2023/04/06 05:22:53;;;;;;;10.13;9.10;;;1.00;99.90;;;;;;5071886;28;20076;-80
2023/04/06 05:25:19;;;;;;;9.95;8.95;;;1.00;99.90;;;;;;5072465;28;20123;-79
2023/04/06 05:27:45;;;;;;;10.02;8.85;;;1.00;99.90;;;;;;5070986;28;20048;-79
2023/04/06 05:30:11;;;;;;;9.68;8.60;;;1.00;99.90;;;;;;5072051;28;20052;-79
2023/04/06 05:32:37;;;;;;;10.85;9.60;;;0.90;99.90;;;;;;5073198;28;20048;-80
2023/04/06 05:35:03;;;;;;;9.70;8.80;;;1.00;99.90;;;;;;5075287;28;20078;-80
2023/04/06 05:37:28;;;;;;;8.80;7.65;;;0.90;99.90;;;;;;5075134;28;20117;-80
2023/04/06 05:39:54;;;;;;;9.82;8.93;;;0.90;99.90;;;;;;5075217;28;20050;-80
2023/04/06 05:42:20;;;;;;;9.20;8.30;;;1.00;99.90;;;;;;5076440;28;20056;-79
2023/04/06 05:44:45;;;;;;;13.48;9.60;;;0.90;99.90;;;;;;5081567;28;20444;-78
2023/04/06 05:47:11;;;;;;;12.30;9.65;;;1.00;99.90;;;;;;5084972;28;20068;-80
2023/04/06 05:49:37;;;;;;;9.65;8.73;;;1.00;99.90;;;;;;5086647;28;20040;-80
2023/04/06 05:52:04;;;;;;;14.18;9.52;;;1.00;99.90;;;;;;5082276;28;20044;-82
2023/04/06 05:54:29;;;;;;;10.57;9.10;;;1.10;99.90;;;;;;5076642;28;20082;-81
2023/04/06 05:56:55;;;;;;;10.70;9.63;;;1.10;99.90;;;;;;5076093;28;20527;-77
2023/04/06 05:59:21;;;;;;;10.82;9.45;;;1.10;99.90;;;;;;5074224;28;20048;-81
2023/04/06 06:01:47;;;;;;;11.52;9.63;;;1.20;99.90;;;;;;5108227;28;20491;-81
2023/04/06 06:04:12;;;;;;;10.45;8.75;;;1.20;99.90;;;;;;5075393;28;20135;-83
2023/04/06 06:06:38;;;;;;;10.88;9.07;;;1.30;99.90;;;;;;5075308;28;20208;-82
2023/04/06 06:09:04;;;;;;;10.95;9.43;;;1.30;99.90;;;;;;5075210;28;20044;-80
2023/04/06 06:11:30;;;;;;;10.38;9.10;;;1.40;99.90;;;;;;5108100;28;20473;-81
2023/04/06 06:13:56;;;;;;;10.95;9.82;;;1.40;99.90;;;;;;5090427;28;20102;-80
2023/04/06 06:16:21;;;;;;;11.25;10.07;;;1.50;99.90;;;;;;5073373;28;20537;-80
2023/04/06 06:18:48;;;;;;;11.10;9.70;;;1.60;99.90;;;;;;5074507;28;20041;-81
2023/04/06 06:21:13;;;;;;;12.18;9.77;;;1.80;99.90;;;;;;5074602;28;20078;-83
2023/04/06 06:23:39;;;;;;;13.98;9.90;;;1.90;99.90;;;;;;5074607;28;20049;-80
2023/04/06 06:26:05;;;;;;;10.65;9.52;;;1.90;99.90;;;;;;5074725;28;20450;-77
2023/04/06 06:28:31;;;;;;;10.13;9.15;;;2.00;99.90;;;;;;5074375;28;20433;-81
2023/04/06 06:30:58;;;;;;;11.95;10.50;;;2.00;99.90;;;;;;5074206;28;20044;-81
2023/04/06 06:33:25;;;;;;;14.05;10.23;;;2.10;99.90;;;;;;5074567;28;20050;-80
2023/04/06 06:35:52;;;;;;;14.63;10.88;;;2.20;99.90;;;;;;5074142;28;20060;-80
2023/04/06 06:38:17;;;;;;;10.85;9.65;;;2.30;99.90;;;;;;5074203;28;20047;-82
2023/04/06 06:40:44;;;;;;;11.52;10.32;;;2.40;99.90;;;;;;5073522;28;20045;-81
2023/04/06 06:43:10;;;;;;;14.80;10.48;;;2.50;99.90;;;;;;5073855;28;20087;-77
2023/04/06 06:45:36;;;;;;;11.30;9.32;;;2.60;99.90;;;;;;5074053;28;20551;-80
2023/04/06 06:48:02;;;;;;;11.98;10.55;;;2.70;99.90;;;;;;5072901;28;20531;-79
2023/04/06 06:50:27;;;;;;;10.73;9.60;;;2.80;99.90;;;;;;5072679;28;20041;-82
2023/04/06 06:52:53;;;;;;;14.20;9.73;;;3.00;99.90;;;;;;5073679;28;20101;-81
2023/04/06 06:55:19;;;;;;;12.35;10.63;;;3.10;99.90;;;;;;5073859;28;20052;-80
2023/04/06 06:57:46;;;;;;;12.15;9.63;;;3.20;99.90;;;;;;5073255;28;20106;-81
2023/04/06 07:00:14;;;;;;;13.82;10.80;;;3.30;99.90;;;;;;5073587;28;20109;-83
2023/04/06 07:02:39;;;;;;;14.20;10.32;;;3.40;99.90;;;;;;5073602;28;20057;-80
2023/04/06 07:05:05;;;;;;;11.70;9.75;;;3.50;99.90;;;;;;5073692;28;20044;-78
2023/04/06 07:07:33;;;;;;;10.65;9.38;;;3.70;99.90;;;;;;5073118;28;20049;-86
2023/04/06 07:10:00;;;;;;;13.38;10.35;;;3.90;99.90;;;;;;5073724;28;20064;-81
2023/04/06 07:12:25;;;;;;;11.82;10.63;;;4.00;99.90;;;;;;5073453;28;20048;-80
2023/04/06 07:14:51;;;;;;;12.43;10.05;;;4.20;99.90;;;;;;5105902;28;20070;-80
2023/04/06 07:17:17;;;;;;;12.68;10.20;;;4.30;99.90;;;;;;5073328;28;20055;-80
2023/04/06 07:19:43;;;;;;;14.00;10.60;;;4.50;99.90;;;;;;5073091;28;20055;-79
2023/04/06 07:22:09;;;;;;;12.77;10.45;;;4.70;99.90;;;;;;5073501;28;20046;-84
2023/04/06 07:24:34;;;;;;;10.52;9.45;;;4.90;99.90;;;;;;5073358;28;20533;-83
2023/04/06 07:27:00;;;;;;;11.35;9.15;;;5.30;99.90;;;;;;5072711;28;20101;-82
2023/04/06 07:29:27;;;;;;;12.55;9.52;;;6.50;99.90;;;;;;5071616;28;20053;-83
2023/04/06 07:31:53;;;;;;;9.55;8.13;;;7.90;99.90;;;;;;5073653;28;20045;-82
2023/04/06 07:34:19;;;;;;;11.65;9.23;;;9.20;99.90;;;;;;5072755;28;20660;-83
2023/04/06 07:36:45;;;;;;;9.43;8.07;;;10.20;99.80;;;;;;5072000;28;20053;-80
2023/04/06 07:39:10;;;;;;;9.60;8.63;;;10.80;98.30;;;;;;5088743;28;20041;-84
2023/04/06 07:41:36;;;;;;;10.30;8.88;;;11.60;97.90;;;;;;5073158;28;20067;-83
2023/04/06 07:44:03;;;;;;;12.85;9.40;;;12.30;97.00;;;;;;5072869;28;20068;-87
2023/04/06 07:46:31;;;;;;;9.32;7.88;;;12.80;95.60;;;;;;5071425;28;20040;-86
2023/04/06 07:48:57;;;;;;;8.50;6.95;;;13.20;94.40;;;;;;5072610;28;20125;-80
2023/04/06 07:51:23;;;;;;;6.78;6.13;;;13.50;94.40;;;;;;5088801;28;20124;-86
2023/04/06 07:53:50;;;;;;;17.08;7.63;;;14.00;93.80;;;;;;5072153;28;20480;-73
2023/04/06 07:56:17;;;;;;;9.02;6.95;;;13.90;92.60;;;;;;5072960;28;20048;-87
2023/04/06 07:58:43;;;;;;;11.13;7.88;;;14.50;92.50;;;;;;5071110;28;20044;-83
2023/04/06 08:01:08;;;;;;;9.02;7.28;;;14.80;91.50;;;;;;5072886;28;20093;-88
2023/04/06 08:03:35;;;;;;;9.57;7.53;;;14.90;90.80;;;;;;5072521;28;20461;-86
2023/04/06 08:06:01;;;;;;;9.40;7.55;;;14.90;88.60;;;;;;5072171;28;20510;-79
2023/04/06 08:08:26;;;;;;;8.55;7.65;;;15.00;88.80;;;;;;5072719;28;20033;-85
2023/04/06 08:10:52;;;;;;;9.02;7.35;;;15.20;88.10;;;;;;5072780;28;20465;-85
2023/04/06 08:13:18;;;;;;;8.73;7.75;;;15.30;86.00;;;;;;5071484;28;20131;-86
2023/04/06 08:15:44;;;;;;;7.53;6.90;;;15.40;86.50;;;;;;5072784;28;20051;-86
2023/04/06 08:18:10;;;;;;;9.20;7.55;;;15.50;85.70;;;;;;5072086;28;20040;-84
2023/04/06 08:20:36;;;;;;;9.88;7.35;;;15.40;85.00;;;;;;5072865;28;20446;-82
2023/04/06 08:23:02;;;;;;;9.35;8.35;;;15.60;84.70;;;;;;5071121;28;20476;-84
2023/04/06 08:25:27;;;;;;;11.48;8.30;;;15.50;83.80;;;;;;5071595;28;20086;-84
2023/04/06 08:27:53;;;;;;;9.35;7.75;;;15.60;84.80;;;;;;5072034;28;20045;-84
2023/04/06 08:30:19;;;;;;;9.30;8.30;;;15.60;84.40;;;;;;5072444;28;20432;-83
2023/04/06 08:32:47;;;;;;;10.35;8.57;;;15.60;84.70;;;;;;5072490;28;20434;-87
2023/04/06 08:35:13;;;;;;;10.15;8.57;;;15.90;83.90;;;;;;5072013;28;20385;-84
2023/04/06 08:37:39;;;;;;;11.77;8.85;;;16.40;84.80;;;;;;5070916;28;20048;-82
2023/04/06 08:40:05;;;;;;;9.00;8.10;;;16.50;83.60;;;;;;5072025;28;20499;-81
2023/04/06 08:42:41;;;;;;;11.48;8.52;;;16.60;82.10;;;;;;5072386;28;20060;-81
2023/04/06 08:45:09;;;;;;;12.18;8.75;;;16.80;81.70;;;;;;5072611;28;20053;-83
2023/04/06 08:47:36;;;;;;;8.55;7.75;;;16.90;82.20;;;;;;5072898;28;20052;-87
2023/04/06 08:50:04;;;;;;;9.77;8.27;;;16.90;81.90;;;;;;5084816;28;20066;-83
2023/04/06 08:52:33;;;;;;;10.38;8.73;;;17.20;81.90;;;;;;5085728;28;20075;-86
2023/04/06 08:54:59;;;;;;;11.23;8.55;;;17.30;80.00;;;;;;5084874;28;20040;-81
2023/04/06 08:57:25;;;;;;;9.02;7.93;;;17.00;77.00;;;;;;5083750;28;20043;-81
2023/04/06 08:59:51;;;;;;;11.90;8.25;;;16.60;77.60;;;;;;5073630;28;20040;-82
2023/04/06 09:02:19;;;;;;;11.75;9.35;;;17.00;78.30;;;;;;5072891;28;20048;-82
2023/04/06 09:04:47;;;;;;;9.63;8.48;;;17.10;76.90;;;;;;5072095;28;20049;-83
2023/04/06 09:07:15;;;;;;;9.05;8.15;;;17.10;75.40;;;;;;5073945;28;20086;-84
2023/04/06 09:09:47;;;;;;;9.05;7.55;;;17.10;75.00;;;;;;5092044;28;20072;-83
2023/04/06 09:12:26;;;;;;;9.15;7.90;;;17.00;73.90;;;;;;5076357;28;20051;-85
2023/04/06 09:14:52;;;;;;;10.30;8.48;;;17.10;74.30;;;;;;5076614;28;20051;-83
2023/04/06 09:17:26;;;;;;;11.00;8.57;;;17.40;75.20;;;;;;5076498;28;20067;-87
2023/04/06 09:19:52;;;;;;;11.13;7.90;;;17.80;74.60;;;;;;5075828;28;20052;-82
2023/04/06 09:22:19;;;;;;;11.65;7.82;;;18.10;74.50;;;;;;5074913;28;20123;-85
2023/04/06 09:24:53;;;;;;;10.48;7.53;;;18.30;73.60;;;;;;5075716;28;20082;-84
2023/04/06 09:27:34;;;;;;;11.07;8.13;;;18.30;71.40;;;;;;5075904;28;20615;-83
2023/04/06 09:30:16;;;;;;;11.40;8.65;;;18.20;70.40;;;;;;5075920;28;20055;-84
2023/04/06 09:32:46;;;;;;;11.77;8.60;;;18.10;70.30;;;;;;5076443;28;20143;-83
2023/04/06 09:35:12;;;;;;;8.65;7.45;;;17.80;69.50;;;;;;5074370;28;20106;-83
2023/04/06 09:37:38;;;;;;;11.05;8.90;;;17.30;70.50;;;;;;5074257;28;20044;-86
2023/04/06 09:40:05;;;;;;;9.68;8.35;;;16.80;70.90;;;;;;5075236;28;20115;-86
2023/04/06 09:42:31;;;;;;;11.30;9.52;;;16.40;69.90;;;;;;5076038;28;20055;-83
2023/04/06 09:44:57;;;;;;;10.75;9.18;;;16.00;69.50;;;;;;5074722;28;20056;-83
2023/04/06 09:47:26;;;;;;;8.48;7.32;;;15.70;70.00;;;;;;5091091;28;20125;-81
2023/04/06 09:49:57;;;;;;;11.55;9.30;;;15.50;69.90;;;;;;5075068;28;20477;-85
2023/04/06 09:52:46;;;;;;;8.93;7.75;;;15.20;70.40;;;;;;5091313;28;20044;-85
2023/04/06 09:55:16;;;;;;;13.40;8.90;;;14.80;70.70;;;;;;5074519;28;20049;-86
2023/04/06 09:57:50;;;;;;;10.40;8.77;;;14.40;71.70;;;;;;5075180;28;20075;-86
2023/04/06 10:00:20;;;;;;;13.13;8.88;;;14.20;72.30;;;;;;5075372;28;20041;-81
2023/04/06 10:03:18;;;;;;;11.50;9.75;;;14.20;73.00;;;;;;5075529;28;20175;-82
2023/04/06 10:05:54;;;;;;;13.27;8.90;;;14.00;73.40;;;;;;5019794;28;20089;-84
2023/04/06 10:08:24;;;;;;;16.42;9.55;;;14.00;73.20;;;;;;5075392;28;20037;-84
2023/04/06 10:10:51;;;;;;;10.95;8.95;;;13.80;73.30;;;;;;5075393;28;20131;-85
2023/04/06 10:13:19;;;;;;;12.68;10.45;;;13.70;73.70;;;;;;5075004;28;20053;-84
2023/04/06 10:15:45;;;;;;;14.73;10.50;;;13.60;74.60;;;;;;5074755;28;20106;-85
2023/04/06 10:18:11;;;;;;;15.85;9.85;;;13.50;74.40;;;;;;5074325;28;20040;-87
2023/04/06 10:21:01;;;;;;;15.13;10.10;;;13.30;74.60;;;;;;5075339;28;20044;-84
2023/04/06 10:23:34;;;;;;;15.15;10.05;;;13.40;74.50;;;;;;5073589;28;20135;-85
2023/04/06 10:26:01;;;;;;;;;;;13.50;74.80;;;;;;5074898;28;20048;-81
2023/04/06 10:28:32;;;;;;;14.75;9.45;;;13.50;74.60;;;;;;5074962;28;20368;-77
2023/04/06 10:31:00;;;;;;;16.83;10.00;;;13.50;74.70;;;;;;5075271;28;20037;-79
2023/04/06 10:33:26;;;;;;;13.38;11.35;;;13.70;75.10;;;;;;5079260;28;20048;-79
2023/04/06 10:35:51;;;;;;;13.57;9.05;;;13.90;74.80;;;;;;5075625;28;20089;-82
2023/04/06 10:38:21;;;;;;;12.52;10.82;;;14.30;74.50;;;;;;5074482;28;20048;-81
2023/04/06 10:40:47;;;;;;;16.85;12.10;;;14.60;74.40;;;;;;5075227;28;20048;-81
2023/04/06 10:43:21;;;;;;;20.15;12.05;;;14.70;73.20;;;;;;5074407;28;20145;-77
2023/04/06 10:45:57;;;;;;;15.02;12.20;;;14.90;72.40;;;;;;5076015;28;20498;-81
2023/04/06 10:48:23;;;;;;;19.77;13.82;;;15.10;71.30;;;;;;5075204;28;20060;-84
2023/04/06 10:50:53;;;;;;;18.92;14.30;;;15.10;69.40;;;;;;5075132;28;20056;-78
2023/04/06 10:53:26;;;;;;;20.60;15.82;;;15.10;70.70;;;;;;5073129;28;20182;-80
2023/04/06 10:55:54;;;;;;;17.73;13.70;;;15.00;69.50;;;;;;5074396;28;20126;-70
2023/04/06 10:58:20;;;;;;;23.75;15.05;;;15.00;68.70;;;;;;5073829;28;20535;-75
2023/04/06 11:00:47;;;;;;;21.48;13.30;;;15.00;69.60;;;;;;5074012;28;20048;-81
2023/04/06 11:03:13;;;;;;;21.60;15.63;;;14.90;69.50;;;;;;5073617;28;20055;-81
2023/04/06 11:05:42;;;;;;;27.15;17.02;;;14.90;69.60;;;;;;5073896;28;20047;-81
2023/04/06 11:08:08;;;;;;;21.10;16.13;;;14.80;69.80;;;;;;5074577;28;20323;-83
2023/04/06 11:10:34;;;;;;;18.20;15.38;;;15.00;70.30;;;;;;5073677;28;20504;-81
2023/04/06 11:13:00;;;;;;;22.27;14.70;;;15.00;70.70;;;;;;5073900;28;20060;-74
2023/04/06 11:15:25;;;;;;;20.50;15.75;;;15.00;67.80;;;;;;5073574;28;20044;-75
2023/04/06 11:17:51;;;;;;;21.67;14.90;;;15.10;69.30;;;;;;5089276;28;20084;-74
2023/04/06 11:20:19;;;;;;;23.35;16.38;;;15.20;69.70;;;;;;5089478;28;20095;-75
2023/04/06 11:22:52;;;;;;;22.38;15.90;;;15.30;70.00;;;;;;5088788;28;20129;-73
2023/04/06 11:25:18;;;;;;;18.08;15.23;;;15.40;68.70;;;;;;5073947;28;20059;-82
2023/04/06 11:27:46;;;;;;;25.67;15.13;;;15.50;69.30;;;;;;5074234;28;20531;-77
2023/04/06 11:30:12;;;;;;;22.67;16.23;;;15.60;69.10;;;;;;5072780;28;20110;-81
2023/04/06 11:32:42;;;;;;;23.98;16.77;;;15.50;68.40;;;;;;5073231;28;20049;-80
2023/04/06 11:35:31;;;;;;;21.80;16.17;;;15.40;68.40;;;;;;5073310;28;20066;-81
2023/04/06 11:37:57;;;;;;;18.60;14.35;;;15.20;68.90;;;;;;5072469;28;20051;-81
2023/04/06 11:40:23;;;;;;;18.85;15.40;;;15.20;69.00;;;;;;5072950;28;20135;-81
2023/04/06 11:42:56;;;;;;;23.52;16.05;;;15.30;69.00;;;;;;5072718;28;20529;-82
2023/04/06 11:45:22;;;;;;;22.65;14.73;;;15.20;69.00;;;;;;5073011;28;20088;-78
2023/04/06 11:47:57;;;;;;;20.38;15.82;;;15.20;68.90;;;;;;5073173;28;20099;-83
2023/04/06 11:50:23;;;;;;;18.58;13.70;;;15.20;68.60;;;;;;5072246;28;20473;-83
2023/04/06 11:53:00;;;;;;;21.90;16.45;;;15.10;68.40;;;;;;5072673;28;20048;-85
2023/04/06 11:55:25;;;;;;;24.77;17.50;;;14.90;68.40;;;;;;5077222;28;20489;-82
2023/04/06 11:57:51;;;;;;;23.77;17.60;;;14.70;67.70;;;;;;5099883;28;20056;-80
2023/04/06 12:00:17;;;;;;;22.20;16.88;;;14.70;68.30;;;;;;5115239;28;20059;-83
2023/04/06 12:02:47;;;;;;;24.83;18.08;;;14.70;68.10;;;;;;5099083;28;20104;-83
2023/04/06 12:05:13;;;;;;;22.38;16.85;;;14.70;67.80;;;;;;5084863;28;20052;-83
2023/04/06 12:07:38;;;;;;;25.17;17.75;;;14.70;67.90;;;;;;5084716;28;20048;-82
2023/04/06 12:10:05;;;;;;;22.05;15.30;;;14.80;68.50;;;;;;5086944;28;20137;-81
2023/04/06 12:12:30;;;;;;;21.63;16.17;;;14.90;68.70;;;;;;5078773;28;20127;-83
2023/04/06 12:14:56;;;;;;;25.17;17.30;;;14.90;69.00;;;;;;5087220;28;20044;-83
2023/04/06 12:17:23;;;;;;;24.70;16.70;;;14.80;68.70;;;;;;5085083;28;20095;-83
2023/04/06 12:19:49;;;;;;;28.35;17.67;;;14.70;68.10;;;;;;5073029;28;20040;-83
2023/04/06 12:22:14;;;;;;;21.30;18.55;;;14.70;69.00;;;;;;5071561;28;20086;-85
2023/04/06 12:24:40;;;;;;;26.40;17.88;;;14.60;68.60;;;;;;5073196;28;20053;-85
2023/04/06 12:27:06;;;;;;;17.80;11.73;;;14.60;69.00;;;;;;5072854;28;20051;-81
2023/04/06 12:29:32;;;;;;;25.67;16.60;;;14.60;67.30;;;;;;5072643;28;20045;-83
2023/04/06 12:32:01;;;;;;;23.27;15.55;;;14.60;66.80;;;;;;5072962;28;20100;-83
2023/04/06 12:34:27;;;;;;;21.85;16.13;;;14.60;66.90;;;;;;5073082;28;20051;-80
2023/04/06 12:36:52;;;;;;;25.00;16.70;;;14.60;66.60;;;;;;5071569;28;20127;-82
2023/04/06 12:39:18;;;;;;;24.27;18.30;;;14.50;66.70;;;;;;5087933;28;20044;-79
2023/04/06 12:41:44;;;;;;;22.58;15.98;;;14.30;65.80;;;;;;5075984;28;20067;-80
2023/04/06 12:44:11;;;;;;;26.92;16.10;;;14.40;66.70;;;;;;5078134;28;20044;-87